createdAt,value
2023-04-08T00:00:27.421Z,16.70
2023-04-08T00:02:56.350Z,16.33
2023-04-08T00:05:25.523Z,17.63
2023-04-08T00:07:56.683Z,16.57
2023-04-08T00:10:26.542Z,18.27
2023-04-08T00:12:55.795Z,17.90
2023-04-08T00:15:24.758Z,17.30
2023-04-08T00:17:56.126Z,17.37
2023-04-08T00:20:26.608Z,17.83
2023-04-08T00:22:56.282Z,17.97
2023-04-08T00:25:25.708Z,18.43
2023-04-08T00:27:57.961Z,19.20
2023-04-08T00:30:28.227Z,18.97
2023-04-08T00:32:57.983Z,18.30
2023-04-08T00:35:26.836Z,19.30
2023-04-08T00:37:57.780Z,18.23
2023-04-08T00:40:31.589Z,19.17
2023-04-08T00:43:00.468Z,19.60
2023-04-08T00:45:32.330Z,18.77
2023-04-08T00:48:01.417Z,19.97
2023-04-08T00:50:29.837Z,19.03
2023-04-08T00:52:59.929Z,19.27
2023-04-08T00:55:28.498Z,19.83
2023-04-08T00:57:57.881Z,20.73
2023-04-08T01:00:26.384Z,20.47
2023-04-08T01:02:57.840Z,21.17
2023-04-08T01:05:27.395Z,21.40
2023-04-08T01:07:56.461Z,20.33
2023-04-08T01:10:28.022Z,20.30
2023-04-08T01:12:56.905Z,20.97
2023-04-08T01:15:25.489Z,22.10
2023-04-08T01:17:55.077Z,21.93
2023-04-08T01:20:23.511Z,21.50
2023-04-08T01:22:57.568Z,22.63
2023-04-08T01:25:28.405Z,22.97
2023-04-08T01:27:58.318Z,22.17
2023-04-08T01:30:27.020Z,22.13
2023-04-08T01:32:55.669Z,22.17
2023-04-08T01:35:24.333Z,22.43
2023-04-08T01:37:53.201Z,22.47
2023-04-08T01:40:21.553Z,22.23
2023-04-08T01:42:50.042Z,23.13
2023-04-08T01:45:21.400Z,22.73
2023-04-08T01:47:50.009Z,22.63
2023-04-08T01:50:19.410Z,22.17
2023-04-08T01:52:48.381Z,23.90
2023-04-08T01:55:16.735Z,22.87
2023-04-08T01:57:46.492Z,23.40
2023-04-08T02:00:15.142Z,22.83
2023-04-08T02:02:45.271Z,23.27
2023-04-08T02:05:13.807Z,23.73
2023-04-08T02:07:42.235Z,24.10
2023-04-08T02:10:11.725Z,24.57
2023-04-08T02:12:40.175Z,24.90
2023-04-08T02:15:09.318Z,22.00
2023-04-08T02:17:39.473Z,23.23
2023-04-08T02:20:10.053Z,25.47
2023-04-08T02:22:41.186Z,24.27
2023-04-08T02:25:10.743Z,24.80
2023-04-08T02:27:39.399Z,25.10
2023-04-08T02:30:08.644Z,26.17
2023-04-08T02:32:37.115Z,24.43
2023-04-08T02:35:06.063Z,25.17
2023-04-08T02:37:35.928Z,24.30
2023-04-08T02:40:04.393Z,26.97
2023-04-08T02:42:32.853Z,24.90
2023-04-08T02:45:01.285Z,26.63
2023-04-08T02:47:30.052Z,25.33
2023-04-08T02:49:58.862Z,26.00
2023-04-08T02:52:27.404Z,25.70
2023-04-08T02:54:57.187Z,26.03
2023-04-08T02:57:25.771Z,27.83
2023-04-08T02:59:54.366Z,26.57
2023-04-08T03:02:23.143Z,25.67
2023-04-08T03:04:51.699Z,27.23
2023-04-08T03:07:20.215Z,25.93
2023-04-08T03:09:48.573Z,26.50
2023-04-08T03:12:18.437Z,26.50
2023-04-08T03:14:46.937Z,26.17
2023-04-08T03:17:15.553Z,26.30
2023-04-08T03:19:44.403Z,26.13
2023-04-08T03:22:13.193Z,27.37
2023-04-08T03:24:41.732Z,26.27
2023-04-08T03:27:10.234Z,25.50
2023-04-08T03:29:40.029Z,27.07
2023-04-08T03:32:08.786Z,26.07
2023-04-08T03:34:37.223Z,25.43
2023-04-08T03:37:05.739Z,26.43
2023-04-08T03:39:34.149Z,26.17
2023-04-08T03:42:03.208Z,25.47
2023-04-08T03:44:31.778Z,24.63
2023-04-08T03:47:01.719Z,25.43
2023-04-08T03:49:30.153Z,26.23
2023-04-08T03:51:58.785Z,26.70
2023-04-08T03:54:27.200Z,25.60
2023-04-08T03:56:55.868Z,25.73
2023-04-08T03:59:24.804Z,24.90
2023-04-08T04:01:53.747Z,27.83
2023-04-08T04:04:24.074Z,25.53
2023-04-08T04:06:52.548Z,26.40
2023-04-08T04:09:21.273Z,26.23
2023-04-08T04:11:49.783Z,26.60
2023-04-08T04:14:18.434Z,27.13
2023-04-08T04:16:47.181Z,27.10
2023-04-08T04:19:16.052Z,26.57
2023-04-08T04:21:46.120Z,26.73
2023-04-08T04:24:14.720Z,26.73
2023-04-08T04:26:43.268Z,26.80
2023-04-08T04:29:11.717Z,26.20
2023-04-08T04:31:40.253Z,26.87
2023-04-08T04:34:08.741Z,25.83
2023-04-08T04:36:37.197Z,26.17
2023-04-08T04:39:08.356Z,25.13
2023-04-08T04:41:40.550Z,26.30
2023-04-08T04:44:09.005Z,26.00
2023-04-08T04:46:37.621Z,25.40
2023-04-08T04:49:06.209Z,26.30
2023-04-08T04:51:34.664Z,26.67
2023-04-08T04:54:03.344Z,27.77
2023-04-08T04:56:33.291Z,28.03
2023-04-08T04:59:01.974Z,28.13
2023-04-08T05:01:30.572Z,28.37
2023-04-08T05:03:59.085Z,29.63
2023-04-08T05:06:27.607Z,27.27
2023-04-08T05:08:55.991Z,28.23
2023-04-08T05:11:24.481Z,27.47
2023-04-08T05:13:54.723Z,28.37
2023-04-08T05:16:23.255Z,27.70
2023-04-08T05:18:52.231Z,28.33
2023-04-08T05:21:21.068Z,28.60
2023-04-08T05:23:51.094Z,29.40
2023-04-08T05:26:20.412Z,27.60
2023-04-08T05:28:49.188Z,28.57
2023-04-08T05:31:19.129Z,29.03
2023-04-08T05:33:47.912Z,29.20
2023-04-08T05:36:16.432Z,28.53
2023-04-08T05:38:44.856Z,28.40
2023-04-08T05:41:13.800Z,28.77
2023-04-08T05:43:42.613Z,26.63
2023-04-08T05:46:11.294Z,27.33
2023-04-08T05:48:41.168Z,28.50
2023-04-08T05:51:09.597Z,29.03
2023-04-08T05:53:38.100Z,27.93
2023-04-08T05:56:06.856Z,27.70
2023-04-08T05:58:35.278Z,29.13
2023-04-08T06:01:04.031Z,28.87
2023-04-08T06:03:32.574Z,29.13
2023-04-08T06:06:02.431Z,27.80
2023-04-08T06:08:30.970Z,29.63
2023-04-08T06:10:59.387Z,28.97
2023-04-08T06:13:27.865Z,29.23
2023-04-08T06:15:56.835Z,28.27
2023-04-08T06:18:25.386Z,28.50
2023-04-08T06:20:53.868Z,30.37
2023-04-08T06:23:23.607Z,27.33
2023-04-08T06:25:52.369Z,28.50
2023-04-08T06:28:20.904Z,28.70
2023-04-08T06:30:49.301Z,27.73
2023-04-08T06:33:28.978Z,29.87
2023-04-08T06:36:04.071Z,28.80
2023-04-08T06:38:34.026Z,28.57
2023-04-08T06:41:05.159Z,30.30
2023-04-08T06:43:33.732Z,29.37
2023-04-08T06:46:02.532Z,27.60
2023-04-08T06:48:33.369Z,28.27
2023-04-08T06:51:02.383Z,28.20
2023-04-08T06:53:32.912Z,27.77
2023-04-08T06:56:02.825Z,27.80
2023-04-08T06:58:31.385Z,28.60
2023-04-08T07:00:59.982Z,28.47
2023-04-08T07:03:28.889Z,28.07
2023-04-08T07:05:57.412Z,27.40
2023-04-08T07:08:28.910Z,28.60
2023-04-08T07:10:57.564Z,27.50
2023-04-08T07:13:27.518Z,27.93
2023-04-08T07:15:58.811Z,28.57
2023-04-08T07:18:27.484Z,29.17
2023-04-08T07:20:56.415Z,27.83
2023-04-08T07:23:24.974Z,28.20
2023-04-08T07:25:54.126Z,28.20
2023-04-08T07:28:22.894Z,26.93
2023-04-08T07:30:53.299Z,26.60
2023-04-08T07:33:21.814Z,27.63
2023-04-08T07:35:50.350Z,27.67
2023-04-08T07:38:18.846Z,27.13
2023-04-08T07:40:47.570Z,26.63
2023-04-08T07:43:16.127Z,26.97
2023-04-08T07:45:44.958Z,26.93
2023-04-08T07:48:15.036Z,26.67
2023-04-08T07:51:07.947Z,28.60
2023-04-08T07:53:32.576Z,27.27
2023-04-08T07:56:01.294Z,28.73
2023-04-08T07:58:29.836Z,27.33
2023-04-08T08:00:58.632Z,27.53
2023-04-08T08:03:28.734Z,28.07
2023-04-08T08:05:57.883Z,26.83
2023-04-08T08:08:26.339Z,27.20
2023-04-08T08:10:54.822Z,26.70
2023-04-08T08:13:23.502Z,27.33
2023-04-08T08:15:54.685Z,28.00
2023-04-08T08:18:23.152Z,30.50
2023-04-08T08:20:52.897Z,30.50
2023-04-08T08:23:21.524Z,29.07
2023-04-08T08:25:50.599Z,29.17
2023-04-08T08:28:19.031Z,30.03
2023-04-08T08:30:47.488Z,31.50
2023-04-08T08:33:15.920Z,29.80
2023-04-08T08:35:44.677Z,29.67
2023-04-08T08:38:14.797Z,27.97
2023-04-08T08:40:43.435Z,29.07
2023-04-08T08:43:14.973Z,29.57
2023-04-08T08:45:43.628Z,28.87
2023-04-08T08:48:11.989Z,28.23
2023-04-08T08:50:40.478Z,29.27
2023-04-08T08:53:08.924Z,29.80
2023-04-08T08:56:05.791Z,29.17
2023-04-08T08:58:28.777Z,29.33
2023-04-08T09:00:57.585Z,30.80
2023-04-08T09:03:28.113Z,31.47
2023-04-08T09:05:57.416Z,29.77
2023-04-08T09:08:26.588Z,29.10
2023-04-08T09:10:56.393Z,27.07
2023-04-08T09:13:25.633Z,27.00
2023-04-08T09:16:02.972Z,26.90
2023-04-08T09:18:31.425Z,26.47
2023-04-08T09:21:02.851Z,26.60
2023-04-08T09:23:41.421Z,25.97
2023-04-08T09:26:11.738Z,26.93
2023-04-08T09:28:40.291Z,25.67
2023-04-08T09:31:20.465Z,25.60
2023-04-08T09:33:49.517Z,25.00
2023-04-08T09:36:18.291Z,25.70
2023-04-08T09:38:47.090Z,27.37
2023-04-08T09:41:17.445Z,26.50
2023-04-08T09:43:49.700Z,26.03
2023-04-08T09:46:19.106Z,26.67
2023-04-08T09:48:57.176Z,26.13
2023-04-08T09:51:25.724Z,26.10
2023-04-08T09:53:58.561Z,26.17
2023-04-08T09:56:28.629Z,24.60
2023-04-08T09:58:58.142Z,22.80
2023-04-08T10:01:28.969Z,23.17
2023-04-08T10:03:58.280Z,23.03
2023-04-08T10:06:29.638Z,22.27
2023-04-08T10:08:58.097Z,22.43
2023-04-08T10:11:27.855Z,22.40
2023-04-08T10:13:56.361Z,20.77
2023-04-08T10:16:27.210Z,21.37
2023-04-08T10:18:57.044Z,20.47
2023-04-08T10:21:38.313Z,21.03
2023-04-08T10:24:10.001Z,20.77
2023-04-08T10:26:41.204Z,20.03
2023-04-08T10:29:28.159Z,19.27
2023-04-08T10:31:57.575Z,18.77
2023-04-08T10:34:27.600Z,18.93
2023-04-08T10:36:56.823Z,20.33
2023-04-08T10:39:27.526Z,19.27
2023-04-08T10:41:57.683Z,19.33
2023-04-08T10:44:26.389Z,21.07
2023-04-08T10:46:55.204Z,20.67
2023-04-08T10:49:24.303Z,19.87
2023-04-08T10:51:53.478Z,20.13
2023-04-08T10:54:23.163Z,20.60
2023-04-08T10:56:52.476Z,19.97
2023-04-08T10:59:29.796Z,20.20
2023-04-08T11:01:58.664Z,19.77
2023-04-08T11:04:27.439Z,18.87
2023-04-08T11:06:56.180Z,18.87
2023-04-08T11:09:24.703Z,18.17
2023-04-08T11:11:54.135Z,18.17
2023-04-08T11:14:23.611Z,16.13
2023-04-08T11:16:53.448Z,16.93
2023-04-08T11:19:22.904Z,16.93
2023-04-08T11:21:52.769Z,17.13
2023-04-08T11:24:22.397Z,16.53
2023-04-08T11:26:50.968Z,16.70
2023-04-08T11:29:19.481Z,16.37
2023-04-08T11:31:49.750Z,17.13
2023-04-08T11:34:25.210Z,16.90
2023-04-08T11:36:54.425Z,16.50
2023-04-08T11:39:24.438Z,15.70
2023-04-08T11:41:53.283Z,15.13
2023-04-08T11:44:21.883Z,15.30
2023-04-08T11:46:57.410Z,15.10
2023-04-08T11:49:27.330Z,15.70
2023-04-08T11:51:56.410Z,15.40
2023-04-08T11:54:28.918Z,14.10
2023-04-08T11:56:59.161Z,14.00
2023-04-08T11:59:29.567Z,14.60
2023-04-08T12:01:59.070Z,14.10
2023-04-08T12:04:30.074Z,14.57
2023-04-08T12:06:59.059Z,13.10
2023-04-08T12:09:27.530Z,12.97
2023-04-08T12:11:56.696Z,14.00
2023-04-08T12:14:28.317Z,14.17
2023-04-08T12:16:56.909Z,13.13
2023-04-08T12:19:25.645Z,13.23
2023-04-08T12:21:55.449Z,12.60
2023-04-08T12:24:23.831Z,11.37
2023-04-08T12:26:52.381Z,10.63
2023-04-08T12:29:21.019Z,10.60
2023-04-08T12:31:49.412Z,12.53
2023-04-08T12:34:18.012Z,12.83
2023-04-08T12:36:47.478Z,12.83
2023-04-08T12:39:17.438Z,11.93
2023-04-08T12:41:45.810Z,11.47
2023-04-08T12:44:14.272Z,10.87
2023-04-08T12:46:42.812Z,11.50
2023-04-08T12:49:12.281Z,11.27
2023-04-08T12:51:40.787Z,10.57
2023-04-08T12:54:09.512Z,10.60
2023-04-08T12:56:40.229Z,10.80
2023-04-08T12:59:08.840Z,10.50
2023-04-08T13:01:37.969Z,10.67
2023-04-08T13:04:06.590Z,9.70
2023-04-08T13:06:35.268Z,10.20
2023-04-08T13:09:03.631Z,10.30
2023-04-08T13:11:34.136Z,10.00
2023-04-08T13:14:03.977Z,9.97
2023-04-08T13:16:32.460Z,9.53
2023-04-08T13:19:01.269Z,9.37
2023-04-08T13:21:32.731Z,9.97
2023-04-08T13:24:01.256Z,10.53
2023-04-08T13:26:29.960Z,10.17
2023-04-08T13:28:58.703Z,9.97
2023-04-08T13:31:28.637Z,10.13
2023-04-08T13:33:58.396Z,10.10
2023-04-08T13:36:28.872Z,10.60
2023-04-08T13:38:57.694Z,10.70
2023-04-08T13:41:28.185Z,12.03
2023-04-08T13:43:56.886Z,12.73
2023-04-08T13:46:25.423Z,12.20
2023-04-08T13:48:55.638Z,11.10
2023-04-08T13:51:24.142Z,11.23
2023-04-08T13:53:52.824Z,12.00
2023-04-08T13:56:21.166Z,12.13
2023-04-08T13:58:56.529Z,10.93
2023-04-08T14:01:25.878Z,10.63
2023-04-08T14:03:55.794Z,11.00
2023-04-08T14:06:24.476Z,10.20
2023-04-08T14:08:52.981Z,10.47
2023-04-08T14:11:21.898Z,11.10
2023-04-08T14:13:50.400Z,10.35
2023-04-08T14:16:18.789Z,11.30
2023-04-08T14:18:47.166Z,10.15
2023-04-08T14:21:18.250Z,10.27
2023-04-08T14:23:46.820Z,10.53
2023-04-08T14:26:15.907Z,10.43
2023-04-08T14:28:44.401Z,9.82
2023-04-08T14:31:13.190Z,9.93
2023-04-08T14:33:42.203Z,9.90
2023-04-08T14:36:11.106Z,10.80
2023-04-08T14:38:41.173Z,10.93
2023-04-08T14:41:09.691Z,10.97
2023-04-08T14:43:38.175Z,9.97
2023-04-08T14:46:06.671Z,10.30
2023-04-08T14:48:35.122Z,10.50
2023-04-08T14:51:03.688Z,10.37
2023-04-08T14:53:32.091Z,10.43
2023-04-08T14:56:02.050Z,10.37
2023-04-08T14:58:30.478Z,11.00
2023-04-08T15:00:59.262Z,11.63
2023-04-08T15:03:28.286Z,11.43
2023-04-08T15:05:56.936Z,11.40
2023-04-08T15:08:25.587Z,11.13
2023-04-08T15:10:54.097Z,10.93
2023-04-08T15:13:24.428Z,11.13
2023-04-08T15:15:53.085Z,10.67
2023-04-08T15:18:21.540Z,10.40
2023-04-08T15:20:50.166Z,10.97
2023-04-08T15:23:19.683Z,10.40
2023-04-08T15:25:48.751Z,11.20
2023-04-08T15:28:17.076Z,11.37
2023-04-08T15:30:47.298Z,11.77
2023-04-08T15:33:16.298Z,11.53
2023-04-08T15:35:45.227Z,12.20
2023-04-08T15:38:13.673Z,11.67
2023-04-08T15:40:42.029Z,11.27
2023-04-08T15:43:11.266Z,11.57
2023-04-08T15:45:44.194Z,11.37
2023-04-08T15:48:14.265Z,11.80
2023-04-08T15:50:43.876Z,11.83
2023-04-08T15:53:12.299Z,12.40
2023-04-08T15:55:41.080Z,11.60
2023-04-08T15:58:09.508Z,11.43
2023-04-08T16:00:38.365Z,11.60
2023-04-08T16:03:19.559Z,11.90
2023-04-08T16:05:49.569Z,11.57
2023-04-08T16:08:18.025Z,11.20
2023-04-08T16:10:47.139Z,11.83
2023-04-08T16:13:15.735Z,12.07
2023-04-08T16:15:44.192Z,12.03
2023-04-08T16:18:13.406Z,13.20
2023-04-08T16:20:41.946Z,12.97
2023-04-08T16:23:15.669Z,13.43
2023-04-08T16:25:44.099Z,13.43
2023-04-08T16:28:12.476Z,12.80
2023-04-08T16:30:43.982Z,12.77
2023-04-08T16:33:12.822Z,12.77
2023-04-08T16:35:41.205Z,11.93
2023-04-08T16:38:09.629Z,12.53
2023-04-08T16:40:39.377Z,12.67
2023-04-08T16:43:07.753Z,12.53
2023-04-08T16:45:36.251Z,13.07
2023-04-08T16:48:04.798Z,13.10
2023-04-08T16:50:33.457Z,13.63
2023-04-08T16:53:02.021Z,13.70
2023-04-08T16:55:30.675Z,13.37
2023-04-08T16:58:01.274Z,12.97
2023-04-08T17:00:29.777Z,13.07
2023-04-08T17:02:59.088Z,13.10
2023-04-08T17:05:28.148Z,12.50
2023-04-08T17:07:57.667Z,12.70
2023-04-08T17:10:26.390Z,12.10
2023-04-08T17:12:54.823Z,11.77
2023-04-08T17:15:24.972Z,11.77
2023-04-08T17:17:53.444Z,12.40
2023-04-08T17:20:22.137Z,11.80
2023-04-08T17:22:50.932Z,12.77
2023-04-08T17:25:19.408Z,11.93
2023-04-08T17:27:48.204Z,12.57
2023-04-08T17:30:16.576Z,12.07
2023-04-08T17:32:46.422Z,12.70
2023-04-08T17:35:14.782Z,13.20
2023-04-08T17:37:43.155Z,13.63
2023-04-08T17:40:12.019Z,13.83
2023-04-08T17:42:40.444Z,15.00
2023-04-08T17:45:09.573Z,14.67
2023-04-08T17:47:38.073Z,15.00
2023-04-08T17:50:11.209Z,15.67
2023-04-08T17:52:40.339Z,15.77
2023-04-08T17:55:09.267Z,15.63
2023-04-08T17:57:37.679Z,16.00
2023-04-08T18:00:06.590Z,14.93
2023-04-08T18:02:36.848Z,14.93
2023-04-08T18:05:06.604Z,15.57
2023-04-08T18:07:36.637Z,15.63
2023-04-08T18:10:05.092Z,15.63
2023-04-08T18:12:33.450Z,13.47
2023-04-08T18:15:01.858Z,13.33
2023-04-08T18:17:30.406Z,13.43
2023-04-08T18:20:00.008Z,12.00
2023-04-08T18:22:28.454Z,12.00
2023-04-08T18:24:58.407Z,11.27
2023-04-08T18:27:26.811Z,11.77
2023-04-08T18:29:55.376Z,11.30
2023-04-08T18:32:23.869Z,10.97
2023-04-08T18:34:52.807Z,10.37
2023-04-08T18:37:21.775Z,10.23
2023-04-08T18:39:50.508Z,10.63
2023-04-08T18:42:20.330Z,11.13
2023-04-08T18:44:48.846Z,10.73
2023-04-08T18:47:18.774Z,11.33
2023-04-08T18:49:47.292Z,10.67
2023-04-08T18:52:15.844Z,10.50
2023-04-08T18:54:44.261Z,10.87
2023-04-08T18:57:12.870Z,10.13
2023-04-08T18:59:42.696Z,10.37
2023-04-08T19:02:11.192Z,11.20
2023-04-08T19:04:39.770Z,10.93
2023-04-08T19:07:08.447Z,12.07
2023-04-08T19:09:37.195Z,11.77
2023-04-08T19:12:06.231Z,11.43
2023-04-08T19:14:34.718Z,67.93
2023-04-08T19:17:04.526Z,52.47
2023-04-08T19:19:33.003Z,21.70
2023-04-08T19:22:02.844Z,15.63
2023-04-08T19:24:31.302Z,19.17
2023-04-08T19:27:03.001Z,14.80
2023-04-08T19:29:32.857Z,13.77
2023-04-08T19:32:01.713Z,14.03
2023-04-08T19:34:32.593Z,13.60
2023-04-08T19:37:01.222Z,13.63
2023-04-08T19:39:29.769Z,13.60
2023-04-08T19:41:58.335Z,14.63
2023-04-08T19:44:27.150Z,13.50
2023-04-08T19:46:57.750Z,12.90
2023-04-08T19:49:27.342Z,13.43
2023-04-08T19:51:57.341Z,13.87
2023-04-08T19:54:25.702Z,14.30
2023-04-08T19:56:54.074Z,14.00
2023-04-08T19:59:24.309Z,12.90
2023-04-08T20:01:53.463Z,14.27
2023-04-08T20:04:22.130Z,13.87
2023-04-08T20:06:50.580Z,14.37
2023-04-08T20:09:20.417Z,13.27
2023-04-08T20:11:48.820Z,14.17
2023-04-08T20:14:17.358Z,13.80
2023-04-08T20:16:46.247Z,14.10
2023-04-08T20:19:14.839Z,14.27
2023-04-08T20:21:43.512Z,14.80
2023-04-08T20:24:12.841Z,16.20
2023-04-08T20:26:42.600Z,15.07
2023-04-08T20:29:11.138Z,15.40
2023-04-08T20:31:39.743Z,17.60
2023-04-08T20:34:08.617Z,16.73
2023-04-08T20:36:37.730Z,16.60
2023-04-08T20:39:06.132Z,17.20
2023-04-08T20:41:34.669Z,16.40
2023-04-08T20:44:06.154Z,17.17
2023-04-08T20:46:35.074Z,16.50
2023-04-08T20:49:04.263Z,17.30
2023-04-08T20:51:33.756Z,18.13
2023-04-08T20:54:03.578Z,18.67
2023-04-08T20:56:32.139Z,18.50
2023-04-08T20:59:00.598Z,18.40
2023-04-08T21:01:30.554Z,17.70
2023-04-08T21:03:59.116Z,18.53
2023-04-08T21:06:27.964Z,18.87
2023-04-08T21:08:56.334Z,18.20
2023-04-08T21:11:24.740Z,18.57
2023-04-08T21:13:53.351Z,18.23
2023-04-08T21:16:21.767Z,18.27
2023-04-08T21:18:52.121Z,17.83
2023-04-08T21:21:20.879Z,18.37
2023-04-08T21:23:49.458Z,17.80
2023-04-08T21:26:18.746Z,18.43
2023-04-08T21:28:47.295Z,19.10
2023-04-08T21:31:15.719Z,19.80
2023-04-08T21:33:44.115Z,20.37
2023-04-08T21:36:14.135Z,20.13
2023-04-08T21:38:42.575Z,19.90
2023-04-08T21:41:11.289Z,20.00
2023-04-08T21:43:39.615Z,20.80
2023-04-08T21:46:08.799Z,20.63
2023-04-08T21:48:37.459Z,21.57
2023-04-08T21:51:07.011Z,22.00
2023-04-08T21:53:40.212Z,22.07
2023-04-08T21:56:08.922Z,21.67
2023-04-08T21:58:37.512Z,22.60
2023-04-08T22:01:06.423Z,22.67
2023-04-08T22:03:34.934Z,22.67
2023-04-08T22:06:03.573Z,22.10
2023-04-08T22:08:32.560Z,22.60
2023-04-08T22:11:02.490Z,22.20
2023-04-08T22:13:31.696Z,22.93
2023-04-08T22:16:00.348Z,22.37
2023-04-08T22:18:28.740Z,22.53
2023-04-08T22:20:57.448Z,22.93
2023-04-08T22:23:26.047Z,23.30
2023-04-08T22:25:54.435Z,23.13
2023-04-08T22:28:24.450Z,23.17
2023-04-08T22:30:55.030Z,22.60
2023-04-08T22:33:23.516Z,23.73
2023-04-08T22:35:52.009Z,22.43
2023-04-08T22:38:20.514Z,23.43
2023-04-08T22:40:48.978Z,23.70
2023-04-08T22:43:17.589Z,22.50
2023-04-08T22:45:47.418Z,24.93
2023-04-08T22:48:15.959Z,23.80
2023-04-08T22:50:44.744Z,23.47
2023-04-08T22:53:13.313Z,24.20
2023-04-08T22:55:41.898Z,24.00
2023-04-08T22:58:10.568Z,23.83
2023-04-08T23:00:38.993Z,24.40
2023-04-08T23:03:08.947Z,24.33
2023-04-08T23:05:37.371Z,24.30
2023-04-08T23:08:05.860Z,24.20
2023-04-08T23:10:34.282Z,24.20
2023-04-08T23:13:02.723Z,24.23
2023-04-08T23:15:31.663Z,24.53
2023-04-08T23:18:00.162Z,26.03
2023-04-08T23:20:29.998Z,23.63
2023-04-08T23:22:58.430Z,24.73
2023-04-08T23:25:26.848Z,24.13
2023-04-08T23:27:55.444Z,25.87
2023-04-08T23:30:24.036Z,24.63
2023-04-08T23:32:52.430Z,25.00
2023-04-08T23:35:21.307Z,25.20
2023-04-08T23:37:51.130Z,24.77
2023-04-08T23:40:19.569Z,25.40
2023-04-08T23:42:47.995Z,24.57
2023-04-08T23:45:16.412Z,24.30
2023-04-08T23:47:44.888Z,24.63
2023-04-08T23:50:13.691Z,23.63
2023-04-08T23:52:42.212Z,24.50
2023-04-08T23:55:12.390Z,25.60
2023-04-08T23:57:45.745Z,23.23
